Time;durP1;ratioP1;P1;durP2;ratioP2;P2;SDS_P1;SDS_P2;PMS_P1;PMS_P2;Temp;Humidity;BMP_temperature;BMP_pressure;BME280_temperature;BME280_humidity;BME280_pressure;Samples;Min_cycle;Max_cycle;Signal;HPM_P1;HPM_P2
2023/09/05 00:02:38;;;;;;;2.20;1.42;;;20.10;99.90;;;;;;7349718;32;20192;-57
2023/09/05 00:06:40;;;;;;;4.45;1.58;;;20.00;99.90;;;;;;7356175;32;20161;-57
2023/09/05 00:10:44;;;;;;;4.68;1.27;;;20.10;99.90;;;;;;7349147;32;20103;-57
2023/09/05 00:14:46;;;;;;;3.87;1.62;;;20.10;99.90;;;;;;7345028;32;20111;-57
2023/09/05 00:18:48;;;;;;;2.05;1.50;;;20.00;99.90;;;;;;7349240;32;20103;-56
2023/09/05 00:22:49;;;;;;;4.20;1.30;;;19.90;99.90;;;;;;7345804;32;20138;-56
2023/09/05 00:26:52;;;;;;;4.35;1.40;;;19.80;99.90;;;;;;7346610;32;20773;-56
2023/09/05 00:30:53;;;;;;;3.47;1.33;;;19.80;99.90;;;;;;7346686;32;20187;-57
2023/09/05 00:34:55;;;;;;;3.35;1.10;;;19.90;99.90;;;;;;7349957;32;20116;-56
2023/09/05 00:38:57;;;;;;;2.58;1.40;;;19.80;99.90;;;;;;7345388;32;20095;-56
2023/09/05 00:42:59;;;;;;;1.83;1.25;;;19.80;99.90;;;;;;7342900;32;20118;-56
2023/09/05 00:47:00;;;;;;;2.17;1.20;;;19.80;99.90;;;;;;7340977;32;20251;-57
2023/09/05 00:51:03;;;;;;;2.85;1.30;;;19.80;99.90;;;;;;7340677;32;20138;-57
2023/09/05 00:55:05;;;;;;;2.47;1.40;;;19.80;99.90;;;;;;7347557;32;20573;-56
2023/09/05 00:59:08;;;;;;;4.62;1.60;;;19.90;99.90;;;;;;7344817;32;20263;-57
2023/09/05 01:03:10;;;;;;;3.80;1.40;;;19.90;99.90;;;;;;7349080;32;20302;-56
2023/09/05 01:07:35;;;;;;;3.47;1.30;;;19.90;99.90;;;;;;7347550;32;20159;-57
2023/09/05 01:11:36;;;;;;;2.97;1.30;;;20.10;99.90;;;;;;7347518;32;20107;-56
2023/09/05 01:15:38;;;;;;;2.92;1.20;;;20.00;99.90;;;;;;7342006;32;20096;-57
2023/09/05 01:19:41;;;;;;;1.70;1.20;;;19.90;99.90;;;;;;7342709;32;20186;-57
2023/09/05 01:23:55;;;;;;;1.80;1.20;;;19.90;99.90;;;;;;7343301;32;20115;-56
2023/09/05 01:27:59;;;;;;;2.90;1.27;;;19.80;99.90;;;;;;7347043;32;20123;-56
2023/09/05 01:32:03;;;;;;;2.58;1.60;;;19.80;99.90;;;;;;7339648;32;20593;-57
2023/09/05 01:36:08;;;;;;;2.40;1.40;;;19.70;99.90;;;;;;7343764;32;20198;-58
2023/09/05 01:40:10;;;;;;;2.85;1.30;;;19.80;99.90;;;;;;7344029;32;20482;-56
2023/09/05 01:44:11;;;;;;;2.58;1.10;;;19.80;99.90;;;;;;7347866;32;20151;-56
2023/09/05 01:48:13;;;;;;;2.83;1.20;;;19.80;99.90;;;;;;7344068;32;21578;-56
2023/09/05 01:52:15;;;;;;;3.47;1.33;;;19.70;99.90;;;;;;7342580;32;20121;-57
2023/09/05 01:56:17;;;;;;;4.87;1.55;;;19.60;99.90;;;;;;7341899;32;20214;-56
2023/09/05 02:00:19;;;;;;;1.80;1.20;;;19.60;99.90;;;;;;7342973;32;20095;-56
2023/09/05 02:04:21;;;;;;;3.80;1.50;;;19.60;99.90;;;;;;7343172;32;20119;-56
2023/09/05 02:08:23;;;;;;;2.72;1.50;;;19.60;99.90;;;;;;7345349;32;20447;-56
2023/09/05 02:12:25;;;;;;;4.28;1.25;;;19.60;99.90;;;;;;7336912;32;20607;-57
2023/09/05 02:16:27;;;;;;;4.12;1.50;;;19.60;99.90;;;;;;7347551;32;20190;-57
2023/09/05 02:20:31;;;;;;;2.58;1.60;;;19.50;99.90;;;;;;7343563;32;20096;-57
2023/09/05 02:24:32;;;;;;;3.00;1.45;;;19.60;99.90;;;;;;7351422;32;20119;-56
2023/09/05 02:28:34;;;;;;;1.30;0.93;;;19.60;99.90;;;;;;7342877;32;20152;-57
2023/09/05 02:32:36;;;;;;;3.85;1.30;;;19.60;99.90;;;;;;7342122;32;20253;-56
2023/09/05 02:36:38;;;;;;;1.70;1.05;;;19.60;99.90;;;;;;7350248;32;20114;-55
2023/09/05 02:40:46;;;;;;;2.78;1.65;;;19.50;99.90;;;;;;7344768;32;20275;-56
2023/09/05 02:44:51;;;;;;;2.15;1.40;;;19.40;99.90;;;;;;7340639;32;20194;-55
2023/09/05 02:48:53;;;;;;;1.90;1.27;;;19.50;99.90;;;;;;7343856;32;20631;-55
2023/09/05 02:52:55;;;;;;;1.70;1.10;;;19.40;99.90;;;;;;7342617;32;20129;-56
2023/09/05 02:56:56;;;;;;;3.45;1.37;;;19.40;99.90;;;;;;7342188;32;20123;-56
2023/09/05 03:01:07;;;;;;;2.12;1.30;;;19.30;99.90;;;;;;7342057;32;20110;-56
2023/09/05 03:05:10;;;;;;;1.85;1.10;;;19.30;99.90;;;;;;7342784;32;20138;-55
2023/09/05 03:09:11;;;;;;;4.32;1.40;;;19.30;99.90;;;;;;7342721;32;20509;-56
2023/09/05 03:13:13;;;;;;;2.20;1.40;;;19.30;99.90;;;;;;7346403;32;20221;-56
2023/09/05 03:17:15;;;;;;;2.17;1.30;;;19.20;99.90;;;;;;7358444;32;20280;-55
2023/09/05 03:21:17;;;;;;;2.20;1.20;;;19.30;99.90;;;;;;7348494;32;20171;-55
2023/09/05 03:25:19;;;;;;;1.67;1.25;;;19.20;99.90;;;;;;7349532;32;20139;-56
2023/09/05 03:29:21;;;;;;;1.92;1.27;;;19.20;99.90;;;;;;7350851;32;20498;-56
2023/09/05 03:33:22;;;;;;;1.80;1.10;;;19.00;99.90;;;;;;7351585;32;20113;-57
2023/09/05 03:37:25;;;;;;;2.22;1.20;;;19.00;99.90;;;;;;7350413;32;20330;-57
2023/09/05 03:41:26;;;;;;;2.03;1.48;;;18.80;99.90;;;;;;7354733;32;20134;-55
2023/09/05 03:45:30;;;;;;;2.37;1.30;;;18.80;99.90;;;;;;7359931;32;20297;-55
2023/09/05 03:49:32;;;;;;;2.55;1.20;;;18.70;99.90;;;;;;7350851;32;20156;-56
2023/09/05 03:53:34;;;;;;;3.17;1.50;;;18.70;99.90;;;;;;7346271;32;20548;-56
2023/09/05 03:57:39;;;;;;;2.03;1.27;;;18.60;99.90;;;;;;7361517;32;20227;-55
2023/09/05 04:01:41;;;;;;;2.83;1.50;;;18.60;99.90;;;;;;7351546;32;20814;-56
2023/09/05 04:05:43;;;;;;;1.83;1.42;;;18.60;99.90;;;;;;7358123;32;20102;-55
2023/09/05 04:09:47;;;;;;;2.83;1.23;;;18.70;99.90;;;;;;7350432;32;20100;-55
2023/09/05 04:13:48;;;;;;;4.35;1.25;;;18.70;99.90;;;;;;7352782;32;20514;-56
2023/09/05 04:17:51;;;;;;;2.10;1.30;;;18.70;99.90;;;;;;7359020;32;20092;-55
2023/09/05 04:21:52;;;;;;;4.45;1.30;;;18.70;99.90;;;;;;7353429;32;20143;-54
2023/09/05 04:25:57;;;;;;;2.20;1.23;;;18.70;99.90;;;;;;7357906;32;20096;-56
2023/09/05 04:30:00;;;;;;;2.70;1.60;;;18.60;99.90;;;;;;7360030;32;20123;-55
2023/09/05 04:34:02;;;;;;;3.53;1.60;;;18.50;99.90;;;;;;7338792;32;20445;-55
2023/09/05 04:38:03;;;;;;;3.08;1.55;;;18.50;99.90;;;;;;7345301;32;20182;-55
2023/09/05 04:42:05;;;;;;;3.42;1.15;;;18.40;99.90;;;;;;7356702;32;20285;-55
2023/09/05 04:46:08;;;;;;;4.60;1.60;;;18.30;99.90;;;;;;7343579;32;20529;-55
2023/09/05 04:50:10;;;;;;;4.80;2.03;;;18.20;99.90;;;;;;7347750;32;20179;-56
2023/09/05 04:54:12;;;;;;;4.20;1.60;;;18.00;99.90;;;;;;7353105;32;20173;-56
2023/09/05 04:58:13;;;;;;;2.62;1.70;;;17.70;99.90;;;;;;7350856;32;20130;-57
2023/09/05 05:02:16;;;;;;;3.62;1.65;;;17.50;99.90;;;;;;7337331;32;20208;-56
2023/09/05 05:06:18;;;;;;;3.45;1.85;;;17.40;99.90;;;;;;7349032;32;20122;-56
2023/09/05 05:10:20;;;;;;;3.72;1.80;;;17.30;99.90;;;;;;7352494;32;20202;-56
2023/09/05 05:14:22;;;;;;;5.32;2.20;;;17.40;99.90;;;;;;7343427;32;20580;-56
2023/09/05 05:18:24;;;;;;;4.50;1.95;;;17.30;99.90;;;;;;7345756;32;20249;-56
2023/09/05 05:22:26;;;;;;;4.68;1.77;;;17.10;99.90;;;;;;7353499;32;20126;-56
2023/09/05 05:26:29;;;;;;;6.10;2.08;;;17.00;99.90;;;;;;7347670;32;20463;-56
2023/09/05 05:30:39;;;;;;;4.43;2.10;;;16.90;99.90;;;;;;7331584;32;20174;-57
2023/09/05 05:34:41;;;;;;;6.78;2.05;;;16.80;99.90;;;;;;7319413;32;20262;-56
2023/09/05 05:38:43;;;;;;;4.60;1.92;;;16.70;99.90;;;;;;7340243;32;21249;-56
2023/09/05 05:42:45;;;;;;;3.60;2.00;;;16.70;99.90;;;;;;7333962;32;20228;-56
2023/09/05 05:46:47;;;;;;;2.95;1.62;;;16.60;99.90;;;;;;7337515;32;20196;-55
2023/09/05 05:50:49;;;;;;;3.17;2.00;;;16.70;99.90;;;;;;7328904;32;20242;-56
2023/09/05 05:54:50;;;;;;;3.03;2.00;;;16.70;99.90;;;;;;7328459;32;20190;-55
2023/09/05 05:58:52;;;;;;;4.20;1.70;;;16.80;99.90;;;;;;7331434;32;20199;-55
2023/09/05 06:02:55;;;;;;;3.55;1.70;;;16.90;99.90;;;;;;7321803;32;20321;-56
2023/09/05 06:06:57;;;;;;;3.40;1.42;;;17.00;99.90;;;;;;7346792;32;20103;-55
2023/09/05 06:10:59;;;;;;;3.80;2.20;;;17.30;99.90;;;;;;7329017;32;20225;-58
2023/09/05 06:15:01;;;;;;;4.05;2.75;;;17.30;99.90;;;;;;7342806;32;20694;-57
2023/09/05 06:19:03;;;;;;;3.83;2.03;;;17.50;99.90;;;;;;7327285;32;20311;-57
2023/09/05 06:23:05;;;;;;;2.90;1.65;;;17.70;99.90;;;;;;7328186;32;20202;-57
2023/09/05 06:27:07;;;;;;;2.15;1.50;;;17.80;99.90;;;;;;7334877;32;20209;-57
2023/09/05 06:31:09;;;;;;;2.83;1.75;;;18.00;99.90;;;;;;7336145;32;20186;-56
2023/09/05 06:35:11;;;;;;;3.95;1.90;;;18.20;99.90;;;;;;7337442;32;20205;-56
2023/09/05 06:39:13;;;;;;;3.30;2.05;;;18.30;99.90;;;;;;7331476;32;21022;-57
2023/09/05 06:43:15;;;;;;;2.30;1.45;;;18.50;99.90;;;;;;7339566;32;20193;-56
2023/09/05 06:47:17;;;;;;;4.22;1.55;;;18.70;99.90;;;;;;7338863;32;20216;-57
2023/09/05 06:51:18;;;;;;;2.17;1.33;;;18.70;99.90;;;;;;7338011;32;20258;-56
2023/09/05 06:55:20;;;;;;;3.53;1.80;;;18.90;99.90;;;;;;7341699;32;20178;-57
2023/09/05 06:59:22;;;;;;;2.83;1.70;;;19.00;99.90;;;;;;7334997;32;20170;-57
2023/09/05 07:03:25;;;;;;;3.58;1.70;;;19.20;99.90;;;;;;7339199;32;20187;-55
2023/09/05 07:07:27;;;;;;;1.95;1.48;;;19.30;99.90;;;;;;7343414;32;20345;-56
2023/09/05 07:11:29;;;;;;;2.17;1.40;;;19.30;99.90;;;;;;7338887;32;20469;-56
2023/09/05 07:15:30;;;;;;;3.40;1.60;;;19.50;99.90;;;;;;7349495;32;20092;-55
2023/09/05 07:19:32;;;;;;;2.60;1.65;;;19.60;99.90;;;;;;7337023;32;20209;-56
2023/09/05 07:23:34;;;;;;;4.28;1.27;;;19.70;99.90;;;;;;7335563;32;20195;-55
2023/09/05 07:27:36;;;;;;;4.18;1.50;;;19.80;99.90;;;;;;7343189;32;20111;-55
2023/09/05 07:31:42;;;;;;;3.05;1.50;;;20.00;99.90;;;;;;7346075;32;20103;-55
2023/09/05 07:35:44;;;;;;;3.40;1.33;;;20.10;99.90;;;;;;7348270;32;20512;-54
2023/09/05 07:39:49;;;;;;;3.67;1.90;;;20.10;99.90;;;;;;7362425;32;20099;-55
2023/09/05 07:43:51;;;;;;;4.00;1.80;;;20.20;99.90;;;;;;7349379;32;20145;-55
2023/09/05 07:47:53;;;;;;;3.97;1.80;;;20.30;99.90;;;;;;7344334;32;20100;-56
2023/09/05 07:51:57;;;;;;;3.60;1.48;;;20.50;99.90;;;;;;7342706;32;20100;-55
2023/09/05 07:56:00;;;;;;;2.87;1.67;;;20.60;99.90;;;;;;7347488;32;20163;-56
2023/09/05 08:00:03;;;;;;;2.37;1.73;;;20.70;99.90;;;;;;7350369;32;20109;-55
2023/09/05 08:04:05;;;;;;;2.60;1.50;;;20.80;99.90;;;;;;7345020;32;20437;-55
2023/09/05 08:08:07;;;;;;;2.50;2.05;;;21.00;99.90;;;;;;7342297;32;20108;-56
2023/09/05 08:12:09;;;;;;;5.00;1.80;;;21.00;99.90;;;;;;7338545;32;20509;-56
2023/09/05 08:16:11;;;;;;;3.83;1.80;;;21.20;99.90;;;;;;7345952;32;20131;-57
2023/09/05 08:20:13;;;;;;;3.78;1.80;;;21.30;99.90;;;;;;7335087;32;20187;-56
2023/09/05 08:24:15;;;;;;;3.15;1.40;;;21.30;99.90;;;;;;7344962;32;20505;-56
2023/09/05 08:28:18;;;;;;;2.47;1.67;;;21.50;99.90;;;;;;7340964;32;20111;-56
2023/09/05 08:32:20;;;;;;;3.28;1.73;;;21.90;99.90;;;;;;7337926;32;20136;-59
2023/09/05 08:36:22;;;;;;;2.40;1.80;;;22.10;99.90;;;;;;7334324;32;20150;-57
2023/09/05 08:40:24;;;;;;;6.72;1.90;;;22.20;99.90;;;;;;7348858;32;20524;-57
2023/09/05 08:44:26;;;;;;;2.25;1.52;;;22.30;99.90;;;;;;7344039;32;20103;-57
2023/09/05 08:48:28;;;;;;;2.95;1.80;;;22.50;99.90;;;;;;7340261;32;20242;-57
2023/09/05 08:52:52;;;;;;;3.25;1.60;;;22.80;99.90;;;;;;7333872;32;20187;-58
2023/09/05 08:56:56;;;;;;;2.20;1.30;;;22.80;99.90;;;;;;7335116;32;20186;-58
2023/09/05 09:00:58;;;;;;;4.43;1.35;;;22.80;99.90;;;;;;7333980;32;20286;-57
2023/09/05 09:04:59;;;;;;;3.78;1.70;;;22.90;99.90;;;;;;7338312;32;20083;-59
2023/09/05 09:09:03;;;;;;;2.37;1.30;;;23.10;99.90;;;;;;7353023;32;20092;-58
2023/09/05 09:13:15;;;;;;;2.35;1.40;;;23.30;99.90;;;;;;7346738;32;20187;-57
2023/09/05 09:17:18;;;;;;;3.97;1.60;;;24.10;99.90;;;;;;7341402;32;20107;-57
2023/09/05 09:21:21;;;;;;;2.28;1.30;;;25.10;99.90;;;;;;7343376;32;20469;-58
2023/09/05 09:25:27;;;;;;;1.60;1.23;;;25.50;99.90;;;;;;7347970;32;20551;-58
2023/09/05 09:29:29;;;;;;;1.80;1.10;;;25.90;99.90;;;;;;7337808;32;20115;-58
2023/09/05 09:33:33;;;;;;;4.82;1.30;;;25.80;99.90;;;;;;7352283;32;20234;-58
2023/09/05 09:37:35;;;;;;;2.22;1.20;;;26.00;99.90;;;;;;7333729;32;20171;-60
2023/09/05 09:41:44;;;;;;;4.22;1.40;;;26.80;99.90;;;;;;7333378;32;20111;-57
2023/09/05 09:45:46;;;;;;;7.60;1.10;;;28.10;99.90;;;;;;7356751;32;20152;-57
2023/09/05 09:49:51;;;;;;;3.80;1.08;;;29.80;99.90;;;;;;7337601;32;20108;-58
2023/09/05 09:53:55;;;;;;;3.80;1.20;;;30.70;99.90;;;;;;7347579;32;20220;-58
2023/09/05 09:58:04;;;;;;;1.92;1.10;;;31.90;96.80;;;;;;7360721;32;20130;-57
2023/09/05 10:02:09;;;;;;;1.52;0.80;;;32.40;93.40;;;;;;7341583;32;20565;-57
2023/09/05 10:06:16;;;;;;;3.25;1.10;;;33.00;89.10;;;;;;7352395;32;20096;-57
2023/09/05 10:10:18;;;;;;;1.42;1.00;;;33.80;90.90;;;;;;7341332;32;20125;-58
2023/09/05 10:14:21;;;;;;;2.03;0.80;;;34.00;86.00;;;;;;7338052;32;20130;-57
2023/09/05 10:18:23;;;;;;;4.43;0.88;;;34.20;88.10;;;;;;7338889;32;20187;-58
2023/09/05 10:22:25;;;;;;;4.32;1.08;;;34.10;80.10;;;;;;7346872;32;20135;-58
2023/09/05 10:26:29;;;;;;;2.08;0.95;;;33.60;83.60;;;;;;7344769;32;20301;-58
2023/09/05 10:30:43;;;;;;;2.47;1.12;;;33.20;77.10;;;;;;7337802;32;20250;-57
2023/09/05 10:34:47;;;;;;;1.17;0.90;;;33.20;85.60;;;;;;7328351;32;21057;-57
2023/09/05 10:38:56;;;;;;;1.62;0.90;;;33.20;83.50;;;;;;7332543;32;20182;-57
2023/09/05 10:42:57;;;;;;;1.33;0.80;;;33.30;81.60;;;;;;7337048;32;20213;-57
2023/09/05 10:47:22;;;;;;;2.28;0.80;;;32.90;78.20;;;;;;7341936;32;20611;-57
2023/09/05 10:51:24;;;;;;;1.70;0.80;;;32.60;78.70;;;;;;7350818;32;20348;-56
2023/09/05 10:55:30;;;;;;;1.52;0.95;;;32.80;85.60;;;;;;7359952;32;20103;-58
2023/09/05 10:59:32;;;;;;;0.93;0.70;;;32.50;81.40;;;;;;7342430;32;20238;-57
2023/09/05 11:03:38;;;;;;;2.37;1.05;;;32.70;85.80;;;;;;7339952;32;20209;-57
2023/09/05 11:07:43;;;;;;;1.05;0.77;;;32.70;80.70;;;;;;7330504;32;20187;-57
2023/09/05 11:11:45;;;;;;;2.62;0.70;;;32.70;83.20;;;;;;7324943;32;20339;-57
2023/09/05 11:15:47;;;;;;;2.65;0.73;;;32.50;81.90;;;;;;7330471;32;20186;-59
2023/09/05 11:19:52;;;;;;;1.67;0.93;;;32.10;83.90;;;;;;7336463;32;20207;-58
2023/09/05 11:23:55;;;;;;;5.17;0.80;;;32.10;79.80;;;;;;7324610;32;20287;-60
2023/09/05 11:28:00;;;;;;;1.20;0.80;;;31.60;87.20;;;;;;7336823;32;20118;-59
2023/09/05 11:32:02;;;;;;;1.45;0.90;;;31.10;84.00;;;;;;7340711;32;20442;-56
2023/09/05 11:36:05;;;;;;;3.08;0.60;;;30.50;83.30;;;;;;7335836;32;20277;-57
2023/09/05 11:40:12;;;;;;;2.00;0.88;;;30.20;88.90;;;;;;7355318;32;20153;-64
2023/09/05 11:44:14;;;;;;;3.70;0.93;;;29.80;88.50;;;;;;7345477;32;20151;-66
2023/09/05 11:48:18;;;;;;;1.25;0.80;;;29.70;87.10;;;;;;7351834;32;20472;-65
2023/09/05 11:52:22;;;;;;;0.88;0.70;;;29.70;90.60;;;;;;7345535;32;20525;-66
2023/09/05 11:56:24;;;;;;;2.20;0.70;;;29.80;88.50;;;;;;7352594;32;20174;-65
2023/09/05 12:00:26;;;;;;;2.55;0.80;;;30.10;86.10;;;;;;7346670;32;20197;-57
2023/09/05 12:04:34;;;;;;;2.40;0.80;;;30.20;89.00;;;;;;7349851;32;20214;-57
2023/09/05 12:08:35;;;;;;;3.08;0.90;;;30.30;88.50;;;;;;7349001;32;20445;-57
2023/09/05 12:12:38;;;;;;;0.82;0.68;;;30.20;89.00;;;;;;7346386;32;20188;-57
2023/09/05 12:16:46;;;;;;;2.08;0.70;;;30.20;87.50;;;;;;7356815;32;20501;-58
2023/09/05 12:21:00;;;;;;;1.50;0.73;;;30.00;90.00;;;;;;7346047;32;20272;-58
2023/09/05 12:25:05;;;;;;;1.58;0.80;;;29.70;91.40;;;;;;7346276;32;20166;-54
2023/09/05 12:29:11;;;;;;;3.80;0.88;;;29.60;88.50;;;;;;7341212;32;20096;-57
2023/09/05 12:33:12;;;;;;;1.70;0.80;;;29.50;89.80;;;;;;7330503;32;20174;-56
2023/09/05 12:37:14;;;;;;;1.42;0.82;;;29.60;91.70;;;;;;7338002;32;20204;-57
2023/09/05 12:41:16;;;;;;;1.25;0.60;;;29.60;92.20;;;;;;7331142;32;20254;-56
2023/09/05 12:45:19;;;;;;;2.55;0.70;;;29.40;90.20;;;;;;7334097;32;20201;-56
2023/09/05 12:49:20;;;;;;;2.42;0.73;;;29.40;89.20;;;;;;7334476;32;20229;-57
2023/09/05 12:53:22;;;;;;;3.10;0.95;;;29.50;91.00;;;;;;7336757;32;20620;-58
2023/09/05 12:57:25;;;;;;;1.20;0.70;;;29.50;90.70;;;;;;7339393;32;20454;-58
2023/09/05 13:01:27;;;;;;;4.53;0.70;;;29.70;90.90;;;;;;7326404;32;20274;-58
2023/09/05 13:05:30;;;;;;;1.77;0.65;;;29.80;91.30;;;;;;7337180;32;20186;-56
2023/09/05 13:09:32;;;;;;;1.20;0.73;;;29.90;89.90;;;;;;7334429;32;21088;-57
2023/09/05 13:13:35;;;;;;;2.75;0.93;;;30.10;91.00;;;;;;7332664;32;20260;-58
2023/09/05 13:17:37;;;;;;;0.98;0.60;;;30.00;90.50;;;;;;7340960;32;20206;-58
2023/09/05 13:21:39;;;;;;;1.70;0.90;;;29.90;88.20;;;;;;7331601;32;20875;-57
2023/09/05 13:25:41;;;;;;;2.40;0.85;;;29.70;90.10;;;;;;7336599;32;20235;-58
2023/09/05 13:29:43;;;;;;;0.95;0.60;;;29.60;91.20;;;;;;7331364;32;20205;-57
2023/09/05 13:33:45;;;;;;;1.27;0.60;;;29.60;90.80;;;;;;7338483;32;20190;-58
2023/09/05 13:37:47;;;;;;;2.08;0.62;;;29.70;91.60;;;;;;7330421;32;20205;-58
2023/09/05 13:41:49;;;;;;;1.00;0.60;;;29.80;91.60;;;;;;7340750;32;20234;-58
2023/09/05 13:45:50;;;;;;;0.80;0.50;;;29.60;91.50;;;;;;7345409;32;20112;-59
2023/09/05 13:49:53;;;;;;;1.58;0.73;;;29.60;91.80;;;;;;7349227;32;20112;-58
2023/09/05 13:53:56;;;;;;;2.50;0.70;;;29.80;91.10;;;;;;7360488;32;20107;-58
2023/09/05 13:57:57;;;;;;;1.37;0.70;;;29.80;91.10;;;;;;7344843;32;20095;-58
2023/09/05 14:01:59;;;;;;;0.60;0.50;;;29.90;89.00;;;;;;7347858;32;20210;-59
2023/09/05 14:06:01;;;;;;;1.52;0.50;;;30.10;90.20;;;;;;7345711;32;20125;-58
2023/09/05 14:10:03;;;;;;;1.70;0.60;;;30.40;88.30;;;;;;7344555;32;20103;-58
2023/09/05 14:14:05;;;;;;;2.78;0.50;;;30.40;87.30;;;;;;7335343;32;20823;-58
2023/09/05 14:18:07;;;;;;;1.00;0.52;;;30.50;88.10;;;;;;7327105;32;20711;-58
2023/09/05 14:22:09;;;;;;;1.27;0.90;;;30.60;86.70;;;;;;7331098;32;20199;-57
2023/09/05 14:26:11;;;;;;;2.90;0.80;;;30.60;83.50;;;;;;7339428;32;20205;-57
2023/09/05 14:30:12;;;;;;;0.68;0.60;;;30.50;87.10;;;;;;7334449;32;20195;-58
2023/09/05 14:34:14;;;;;;;1.42;0.60;;;30.30;88.20;;;;;;7331354;32;20893;-58
2023/09/05 14:38:16;;;;;;;1.27;0.60;;;30.10;89.60;;;;;;7329763;32;20190;-58
2023/09/05 14:42:18;;;;;;;0.90;0.80;;;30.00;90.00;;;;;;7335843;32;20592;-57
2023/09/05 14:46:22;;;;;;;2.87;0.68;;;29.90;88.90;;;;;;7322728;32;20205;-57
2023/09/05 14:50:24;;;;;;;1.30;0.70;;;29.70;88.70;;;;;;7333857;32;20258;-57
2023/09/05 14:54:26;;;;;;;4.05;0.82;;;29.70;88.10;;;;;;7335548;32;21324;-58
2023/09/05 14:58:28;;;;;;;1.37;0.60;;;29.50;89.30;;;;;;7331415;32;20229;-58
2023/09/05 15:02:30;;;;;;;2.30;0.60;;;29.30;87.80;;;;;;7331903;32;20353;-59
2023/09/05 15:06:31;;;;;;;1.42;0.60;;;29.10;90.20;;;;;;7334498;32;20194;-58
2023/09/05 15:10:33;;;;;;;1.37;0.60;;;28.90;91.20;;;;;;7345117;32;20927;-57
2023/09/05 15:14:37;;;;;;;1.00;0.70;;;28.90;92.70;;;;;;7336532;32;21202;-58
2023/09/05 15:18:39;;;;;;;1.33;0.60;;;28.90;90.70;;;;;;7345056;32;20233;-59
2023/09/05 15:22:40;;;;;;;1.27;0.70;;;28.60;93.40;;;;;;7329128;32;20221;-58
2023/09/05 15:26:42;;;;;;;1.60;0.68;;;28.50;94.00;;;;;;7336801;32;20510;-58
2023/09/05 15:30:44;;;;;;;1.15;0.60;;;28.50;94.60;;;;;;7338976;32;20202;-58
2023/09/05 15:34:46;;;;;;;1.83;0.73;;;28.30;94.20;;;;;;7340873;32;20505;-58
2023/09/05 15:38:47;;;;;;;0.90;0.60;;;28.40;93.90;;;;;;7330638;32;20851;-58
2023/09/05 15:42:49;;;;;;;1.45;0.60;;;28.20;94.40;;;;;;7335491;32;20592;-58
2023/09/05 15:46:51;;;;;;;0.93;0.70;;;28.10;94.00;;;;;;7340129;32;20206;-57
2023/09/05 15:50:58;;;;;;;4.37;0.70;;;28.10;95.30;;;;;;7347218;32;20266;-58
2023/09/05 15:54:59;;;;;;;2.55;0.80;;;27.90;94.30;;;;;;7337558;32;20195;-57
2023/09/05 15:59:01;;;;;;;2.87;0.98;;;27.80;96.50;;;;;;7336017;32;20243;-58
2023/09/05 16:03:03;;;;;;;3.08;0.88;;;27.70;96.50;;;;;;7334639;32;20174;-58
2023/09/05 16:07:05;;;;;;;1.75;0.85;;;27.60;98.60;;;;;;7332752;32;20640;-57
2023/09/05 16:11:09;;;;;;;1.00;0.80;;;27.50;97.20;;;;;;7331207;32;20179;-57
2023/09/05 16:15:11;;;;;;;2.75;0.80;;;27.40;98.40;;;;;;7336058;32;20262;-58
2023/09/05 16:19:13;;;;;;;1.52;1.10;;;27.30;98.00;;;;;;7336399;32;20194;-58
2023/09/05 16:23:15;;;;;;;1.27;0.70;;;27.20;99.50;;;;;;7339603;32;20190;-57
2023/09/05 16:27:17;;;;;;;3.37;0.77;;;27.10;98.60;;;;;;7337997;32;20222;-58
2023/09/05 16:31:19;;;;;;;1.58;0.70;;;27.00;98.10;;;;;;7345546;32;20186;-57
2023/09/05 16:35:21;;;;;;;2.45;1.10;;;26.90;99.80;;;;;;7336220;32;20208;-58
2023/09/05 16:39:22;;;;;;;1.35;0.98;;;26.80;99.90;;;;;;7337245;32;20175;-57
2023/09/05 16:43:24;;;;;;;3.05;1.20;;;26.80;99.90;;;;;;7335206;32;20564;-58
2023/09/05 16:47:27;;;;;;;2.95;1.08;;;26.60;99.90;;;;;;7335350;32;20217;-58
2023/09/05 16:51:29;;;;;;;4.62;1.37;;;26.50;99.90;;;;;;7326923;32;20244;-58
2023/09/05 16:55:36;;;;;;;3.70;1.27;;;26.40;99.90;;;;;;7331421;32;20251;-58
2023/09/05 16:59:38;;;;;;;1.55;1.10;;;26.30;99.90;;;;;;7336087;32;20095;-57
2023/09/05 17:03:40;;;;;;;3.97;1.60;;;26.30;99.90;;;;;;7346877;32;20848;-57
2023/09/05 17:07:42;;;;;;;2.12;1.30;;;26.10;99.90;;;;;;7346596;32;20102;-57
2023/09/05 17:11:44;;;;;;;2.05;1.08;;;26.10;99.90;;;;;;7343133;32;20280;-58
2023/09/05 17:15:46;;;;;;;2.45;1.33;;;26.00;99.90;;;;;;7348175;32;20096;-57
2023/09/05 17:19:47;;;;;;;3.58;1.42;;;25.90;99.90;;;;;;7337209;32;20179;-58
2023/09/05 17:23:50;;;;;;;2.67;1.33;;;25.70;99.90;;;;;;7346415;32;20630;-58
2023/09/05 17:27:51;;;;;;;3.42;1.45;;;25.50;99.90;;;;;;7345318;32;20576;-58
2023/09/05 17:31:53;;;;;;;1.60;0.98;;;25.30;99.90;;;;;;7346561;32;20274;-57
2023/09/05 17:35:55;;;;;;;2.95;1.50;;;25.10;99.90;;;;;;7340650;32;20362;-59
2023/09/05 17:39:57;;;;;;;4.28;1.20;;;24.90;99.90;;;;;;7339494;32;20156;-58
2023/09/05 17:43:59;;;;;;;5.18;1.23;;;24.60;99.90;;;;;;7345692;32;20123;-58
2023/09/05 17:48:00;;;;;;;3.15;1.23;;;24.40;99.90;;;;;;7342643;32;20103;-58
2023/09/05 17:52:02;;;;;;;4.47;1.20;;;24.10;99.90;;;;;;7347651;32;20122;-58
2023/09/05 17:56:05;;;;;;;5.37;1.12;;;23.90;99.90;;;;;;7344663;32;20125;-57
2023/09/05 18:00:07;;;;;;;6.05;1.30;;;23.70;99.90;;;;;;7349087;32;20467;-58
2023/09/05 18:04:09;;;;;;;3.45;1.30;;;23.50;99.90;;;;;;7350812;32;20115;-56
2023/09/05 18:08:14;;;;;;;3.92;1.65;;;23.10;99.90;;;;;;7338934;32;20226;-57
2023/09/05 18:12:15;;;;;;;4.78;1.52;;;22.80;99.90;;;;;;7343182;32;20628;-57
2023/09/05 18:16:17;;;;;;;5.68;1.50;;;22.60;99.90;;;;;;7340134;32;20164;-55
2023/09/05 18:20:20;;;;;;;5.32;1.40;;;22.30;99.90;;;;;;7349089;32;20235;-56
2023/09/05 18:24:22;;;;;;;6.82;1.70;;;22.10;99.90;;;;;;7357473;32;20103;-56
2023/09/05 18:28:24;;;;;;;3.10;1.30;;;21.80;99.90;;;;;;7346985;32;20156;-56
2023/09/05 18:32:26;;;;;;;7.20;1.50;;;21.70;99.90;;;;;;7348042;32;20267;-55
2023/09/05 18:36:29;;;;;;;2.37;1.20;;;21.40;99.90;;;;;;7345098;32;20117;-55
2023/09/05 18:40:31;;;;;;;4.28;1.25;;;21.20;99.90;;;;;;7352437;32;20103;-55
2023/09/05 18:44:34;;;;;;;7.30;1.55;;;21.00;99.90;;;;;;7348362;32;20230;-59
2023/09/05 18:48:36;;;;;;;5.57;1.70;;;20.80;99.90;;;;;;7349576;32;20139;-59
2023/09/05 18:52:38;;;;;;;5.90;1.60;;;20.50;99.90;;;;;;7351031;32;20201;-59
2023/09/05 18:56:40;;;;;;;4.15;1.60;;;20.50;99.90;;;;;;7340746;32;20138;-58
2023/09/05 19:00:42;;;;;;;5.87;1.55;;;20.30;99.90;;;;;;7346647;32;20518;-57
2023/09/05 19:04:44;;;;;;;6.03;1.60;;;20.10;99.90;;;;;;7351569;32;20123;-57
2023/09/05 19:08:46;;;;;;;9.15;1.60;;;20.00;99.90;;;;;;7343346;32;20122;-57
2023/09/05 19:12:48;;;;;;;8.77;1.45;;;19.90;99.90;;;;;;7352769;32;20246;-57
2023/09/05 19:16:55;;;;;;;5.68;1.60;;;19.80;99.90;;;;;;7346626;32;20210;-57
2023/09/05 19:20:56;;;;;;;4.80;1.60;;;19.80;99.90;;;;;;7357870;32;20145;-57
2023/09/05 19:24:58;;;;;;;4.68;1.60;;;19.70;99.90;;;;;;7350124;32;20104;-58
2023/09/05 19:29:00;;;;;;;4.50;1.67;;;19.60;99.90;;;;;;7356038;32;20202;-57
2023/09/05 19:33:02;;;;;;;5.72;1.90;;;19.50;99.90;;;;;;7354816;32;20506;-58
2023/09/05 19:37:04;;;;;;;8.02;2.20;;;19.60;99.90;;;;;;7345383;32;20572;-56
2023/09/05 19:41:07;;;;;;;3.33;2.00;;;19.50;99.90;;;;;;7349232;32;20469;-57
2023/09/05 19:45:09;;;;;;;3.30;1.98;;;19.50;99.90;;;;;;7348594;32;20173;-56
2023/09/05 19:49:11;;;;;;;4.22;2.28;;;19.50;99.90;;;;;;7355039;32;20108;-57
2023/09/05 19:53:13;;;;;;;2.45;2.00;;;19.60;99.90;;;;;;7353849;32;20159;-56
2023/09/05 19:57:14;;;;;;;4.80;2.47;;;19.70;99.90;;;;;;7340430;32;20524;-56
2023/09/05 20:01:16;;;;;;;5.18;2.15;;;19.80;99.90;;;;;;7338829;32;20262;-56
2023/09/05 20:05:19;;;;;;;3.10;2.20;;;19.90;99.90;;;;;;7335520;32;20250;-56
2023/09/05 20:09:21;;;;;;;3.58;2.30;;;20.00;99.90;;;;;;7329334;32;20099;-56
2023/09/05 20:13:25;;;;;;;6.68;2.00;;;20.10;99.90;;;;;;7336022;32;20182;-56
2023/09/05 20:17:27;;;;;;;3.37;1.80;;;20.20;99.90;;;;;;7337993;32;20917;-56
2023/09/05 20:21:29;;;;;;;3.65;1.77;;;20.30;99.90;;;;;;7338138;32;20318;-55
2023/09/05 20:25:31;;;;;;;1.92;1.48;;;20.40;99.90;;;;;;7332762;32;20713;-56
2023/09/05 20:29:33;;;;;;;4.32;2.08;;;20.50;99.90;;;;;;7335634;32;20231;-56
2023/09/05 20:33:35;;;;;;;2.15;1.37;;;20.50;99.90;;;;;;7351620;32;20188;-56
2023/09/05 20:37:37;;;;;;;1.60;0.90;;;20.50;99.90;;;;;;7336643;32;20182;-56
2023/09/05 20:41:38;;;;;;;1.70;1.15;;;20.40;99.90;;;;;;7328737;32;20918;-57
2023/09/05 20:45:40;;;;;;;2.53;1.12;;;20.70;99.90;;;;;;7340744;32;20193;-56
2023/09/05 20:49:43;;;;;;;4.03;1.37;;;20.80;99.90;;;;;;7348220;32;20110;-56
2023/09/05 20:53:46;;;;;;;2.33;1.10;;;20.80;99.90;;;;;;7340300;32;20262;-56
2023/09/05 20:57:48;;;;;;;2.60;1.10;;;20.80;99.90;;;;;;7340226;32;20107;-55
2023/09/05 21:01:50;;;;;;;2.97;0.93;;;20.80;99.90;;;;;;7349363;32;20520;-57
2023/09/05 21:05:52;;;;;;;3.78;1.25;;;21.00;99.90;;;;;;7337676;32;20208;-56